sensor_id;sensor_type;location;lat;lon;timestamp;P1;durP1;ratioP1;P2;durP2;ratioP2
40286;SDS011;25998;46.604;13.610;2024-03-02T00:00:55;8.77;;;5.45;;
40286;SDS011;25998;46.604;13.610;2024-03-02T00:04:06;7.07;;;5.20;;
40286;SDS011;25998;46.604;13.610;2024-03-02T00:07:18;7.57;;;4.57;;
40286;SDS011;25998;46.604;13.610;2024-03-02T00:10:47;9.45;;;5.55;;
40286;SDS011;25998;46.604;13.610;2024-03-02T00:13:58;9.77;;;4.60;;
40286;SDS011;25998;46.604;13.610;2024-03-02T00:17:14;7.38;;;4.70;;
40286;SDS011;25998;46.604;13.610;2024-03-02T00:20:31;11.25;;;4.50;;
40286;SDS011;25998;46.604;13.610;2024-03-02T00:23:42;9.65;;;4.63;;
40286;SDS011;25998;46.604;13.610;2024-03-02T00:26:53;7.93;;;4.43;;
40286;SDS011;25998;46.604;13.610;2024-03-02T00:33:46;10.27;;;5.05;;
40286;SDS011;25998;46.604;13.610;2024-03-02T00:36:58;9.45;;;4.53;;
40286;SDS011;25998;46.604;13.610;2024-03-02T00:40:10;7.28;;;4.45;;
40286;SDS011;25998;46.604;13.610;2024-03-02T00:46:52;8.40;;;3.90;;
40286;SDS011;25998;46.604;13.610;2024-03-02T00:50:03;6.57;;;4.05;;
40286;SDS011;25998;46.604;13.610;2024-03-02T00:53:16;6.10;;;3.78;;
40286;SDS011;25998;46.604;13.610;2024-03-02T00:56:33;6.95;;;4.07;;
40286;SDS011;25998;46.604;13.610;2024-03-02T00:59:45;8.07;;;4.20;;
40286;SDS011;25998;46.604;13.610;2024-03-02T01:02:56;5.28;;;3.55;;
40286;SDS011;25998;46.604;13.610;2024-03-02T01:06:07;7.20;;;3.65;;
40286;SDS011;25998;46.604;13.610;2024-03-02T01:09:18;7.13;;;3.78;;
40286;SDS011;25998;46.604;13.610;2024-03-02T01:12:29;6.60;;;3.90;;
40286;SDS011;25998;46.604;13.610;2024-03-02T01:15:40;9.50;;;4.32;;
40286;SDS011;25998;46.604;13.610;2024-03-02T01:18:51;6.25;;;3.70;;
40286;SDS011;25998;46.604;13.610;2024-03-02T01:22:02;5.50;;;4.03;;
40286;SDS011;25998;46.604;13.610;2024-03-02T01:25:13;7.82;;;3.83;;
40286;SDS011;25998;46.604;13.610;2024-03-02T01:28:24;7.57;;;4.55;;
40286;SDS011;25998;46.604;13.610;2024-03-02T01:31:35;9.27;;;3.88;;
40286;SDS011;25998;46.604;13.610;2024-03-02T01:34:46;6.43;;;3.47;;
40286;SDS011;25998;46.604;13.610;2024-03-02T01:37:57;9.93;;;3.30;;
40286;SDS011;25998;46.604;13.610;2024-03-02T01:41:08;5.78;;;3.70;;
40286;SDS011;25998;46.604;13.610;2024-03-02T01:44:19;6.28;;;3.35;;
40286;SDS011;25998;46.604;13.610;2024-03-02T01:47:30;6.07;;;3.47;;
40286;SDS011;25998;46.604;13.610;2024-03-02T01:50:41;8.38;;;4.30;;
40286;SDS011;25998;46.604;13.610;2024-03-02T01:53:51;6.03;;;3.38;;
40286;SDS011;25998;46.604;13.610;2024-03-02T01:57:03;8.23;;;3.90;;
40286;SDS011;25998;46.604;13.610;2024-03-02T02:00:14;5.63;;;4.15;;
40286;SDS011;25998;46.604;13.610;2024-03-02T02:03:25;8.15;;;3.60;;
40286;SDS011;25998;46.604;13.610;2024-03-02T02:06:36;7.13;;;4.00;;
40286;SDS011;25998;46.604;13.610;2024-03-02T02:09:47;14.30;;;4.70;;
40286;SDS011;25998;46.604;13.610;2024-03-02T02:12:58;6.82;;;3.88;;
40286;SDS011;25998;46.604;13.610;2024-03-02T02:16:09;9.38;;;4.80;;
40286;SDS011;25998;46.604;13.610;2024-03-02T02:19:20;7.13;;;3.88;;
40286;SDS011;25998;46.604;13.610;2024-03-02T02:22:31;5.53;;;3.63;;
40286;SDS011;25998;46.604;13.610;2024-03-02T02:25:41;7.80;;;4.15;;
40286;SDS011;25998;46.604;13.610;2024-03-02T02:28:52;8.60;;;3.63;;
40286;SDS011;25998;46.604;13.610;2024-03-02T02:32:03;6.97;;;3.10;;
40286;SDS011;25998;46.604;13.610;2024-03-02T02:35:14;6.38;;;3.08;;
40286;SDS011;25998;46.604;13.610;2024-03-02T02:38:25;6.32;;;3.17;;
40286;SDS011;25998;46.604;13.610;2024-03-02T02:41:36;6.25;;;3.05;;
40286;SDS011;25998;46.604;13.610;2024-03-02T02:44:47;5.40;;;3.10;;
40286;SDS011;25998;46.604;13.610;2024-03-02T02:47:58;7.72;;;3.40;;
40286;SDS011;25998;46.604;13.610;2024-03-02T02:51:11;6.78;;;3.05;;
40286;SDS011;25998;46.604;13.610;2024-03-02T02:54:22;5.85;;;2.90;;
40286;SDS011;25998;46.604;13.610;2024-03-02T02:57:33;6.70;;;2.92;;
40286;SDS011;25998;46.604;13.610;2024-03-02T03:00:51;5.88;;;2.92;;
40286;SDS011;25998;46.604;13.610;2024-03-02T03:04:04;5.85;;;2.72;;
40286;SDS011;25998;46.604;13.610;2024-03-02T03:07:15;6.03;;;2.53;;
40286;SDS011;25998;46.604;13.610;2024-03-02T03:10:26;7.32;;;2.60;;
40286;SDS011;25998;46.604;13.610;2024-03-02T03:13:38;4.78;;;3.13;;
40286;SDS011;25998;46.604;13.610;2024-03-02T03:16:48;6.93;;;3.13;;
40286;SDS011;25998;46.604;13.610;2024-03-02T03:20:00;6.05;;;2.75;;
40286;SDS011;25998;46.604;13.610;2024-03-02T03:23:12;7.43;;;3.13;;
40286;SDS011;25998;46.604;13.610;2024-03-02T03:26:26;4.60;;;2.83;;
40286;SDS011;25998;46.604;13.610;2024-03-02T03:29:37;5.47;;;2.60;;
40286;SDS011;25998;46.604;13.610;2024-03-02T03:32:48;5.28;;;2.60;;
40286;SDS011;25998;46.604;13.610;2024-03-02T03:35:59;4.82;;;2.60;;
40286;SDS011;25998;46.604;13.610;2024-03-02T03:39:10;3.92;;;2.53;;
40286;SDS011;25998;46.604;13.610;2024-03-02T03:42:21;5.38;;;2.55;;
40286;SDS011;25998;46.604;13.610;2024-03-02T03:45:32;5.88;;;2.50;;
40286;SDS011;25998;46.604;13.610;2024-03-02T03:48:43;3.10;;;2.15;;
40286;SDS011;25998;46.604;13.610;2024-03-02T03:51:54;7.50;;;2.35;;
40286;SDS011;25998;46.604;13.610;2024-03-02T03:55:05;5.07;;;2.50;;
40286;SDS011;25998;46.604;13.610;2024-03-02T03:58:16;3.83;;;2.30;;
40286;SDS011;25998;46.604;13.610;2024-03-02T04:01:28;4.25;;;2.42;;
40286;SDS011;25998;46.604;13.610;2024-03-02T04:04:39;4.78;;;2.30;;
40286;SDS011;25998;46.604;13.610;2024-03-02T04:07:50;6.90;;;2.50;;
40286;SDS011;25998;46.604;13.610;2024-03-02T04:11:01;5.88;;;2.70;;
40286;SDS011;25998;46.604;13.610;2024-03-02T04:14:13;8.20;;;3.10;;
40286;SDS011;25998;46.604;13.610;2024-03-02T04:17:23;5.95;;;2.65;;
40286;SDS011;25998;46.604;13.610;2024-03-02T04:20:35;5.07;;;2.50;;
40286;SDS011;25998;46.604;13.610;2024-03-02T04:23:45;7.13;;;3.33;;
40286;SDS011;25998;46.604;13.610;2024-03-02T04:26:56;5.70;;;3.20;;
40286;SDS011;25998;46.604;13.610;2024-03-02T04:30:07;5.63;;;2.53;;
40286;SDS011;25998;46.604;13.610;2024-03-02T04:33:18;4.35;;;2.67;;
40286;SDS011;25998;46.604;13.610;2024-03-02T04:36:29;4.15;;;2.47;;
40286;SDS011;25998;46.604;13.610;2024-03-02T04:39:40;4.88;;;2.70;;
40286;SDS011;25998;46.604;13.610;2024-03-02T04:42:51;4.15;;;2.40;;
40286;SDS011;25998;46.604;13.610;2024-03-02T04:46:02;4.68;;;2.58;;
40286;SDS011;25998;46.604;13.610;2024-03-02T04:49:13;3.90;;;2.80;;
40286;SDS011;25998;46.604;13.610;2024-03-02T04:52:23;6.43;;;2.85;;
40286;SDS011;25998;46.604;13.610;2024-03-02T04:55:34;6.03;;;2.70;;
40286;SDS011;25998;46.604;13.610;2024-03-02T04:59:05;6.88;;;2.70;;
40286;SDS011;25998;46.604;13.610;2024-03-02T05:02:17;3.63;;;2.60;;
40286;SDS011;25998;46.604;13.610;2024-03-02T05:05:27;8.77;;;3.03;;
40286;SDS011;25998;46.604;13.610;2024-03-02T05:08:38;5.10;;;3.03;;
40286;SDS011;25998;46.604;13.610;2024-03-02T05:11:49;7.15;;;3.58;;
40286;SDS011;25998;46.604;13.610;2024-03-02T05:15:18;7.57;;;3.17;;
40286;SDS011;25998;46.604;13.610;2024-03-02T05:18:29;5.07;;;3.10;;
40286;SDS011;25998;46.604;13.610;2024-03-02T05:21:40;4.75;;;3.53;;
40286;SDS011;25998;46.604;13.610;2024-03-02T05:24:51;6.47;;;4.20;;
40286;SDS011;25998;46.604;13.610;2024-03-02T05:28:02;8.40;;;4.03;;
40286;SDS011;25998;46.604;13.610;2024-03-02T05:31:16;6.68;;;4.22;;
40286;SDS011;25998;46.604;13.610;2024-03-02T05:34:27;6.07;;;4.30;;
40286;SDS011;25998;46.604;13.610;2024-03-02T05:37:38;5.57;;;4.50;;
40286;SDS011;25998;46.604;13.610;2024-03-02T05:40:49;6.78;;;4.25;;
40286;SDS011;25998;46.604;13.610;2024-03-02T05:44:00;6.35;;;3.90;;
40286;SDS011;25998;46.604;13.610;2024-03-02T05:47:11;7.88;;;4.45;;
40286;SDS011;25998;46.604;13.610;2024-03-02T05:50:22;8.45;;;4.25;;
40286;SDS011;25998;46.604;13.610;2024-03-02T05:53:33;5.47;;;4.05;;
40286;SDS011;25998;46.604;13.610;2024-03-02T05:56:44;5.85;;;3.90;;
40286;SDS011;25998;46.604;13.610;2024-03-02T05:59:55;6.50;;;4.20;;
40286;SDS011;25998;46.604;13.610;2024-03-02T06:03:06;5.55;;;4.10;;
40286;SDS011;25998;46.604;13.610;2024-03-02T06:06:19;6.20;;;3.97;;
40286;SDS011;25998;46.604;13.610;2024-03-02T06:09:31;7.00;;;4.03;;
40286;SDS011;25998;46.604;13.610;2024-03-02T06:12:41;7.07;;;4.22;;
40286;SDS011;25998;46.604;13.610;2024-03-02T06:15:52;5.93;;;3.85;;
40286;SDS011;25998;46.604;13.610;2024-03-02T06:19:03;6.07;;;3.83;;
40286;SDS011;25998;46.604;13.610;2024-03-02T06:22:14;7.32;;;4.13;;
40286;SDS011;25998;46.604;13.610;2024-03-02T06:25:25;8.38;;;4.38;;
40286;SDS011;25998;46.604;13.610;2024-03-02T06:28:36;8.90;;;4.43;;
40286;SDS011;25998;46.604;13.610;2024-03-02T06:31:47;6.28;;;3.90;;
40286;SDS011;25998;46.604;13.610;2024-03-02T06:34:58;6.40;;;4.10;;
40286;SDS011;25998;46.604;13.610;2024-03-02T06:38:09;9.70;;;5.00;;
40286;SDS011;25998;46.604;13.610;2024-03-02T06:41:20;9.55;;;5.15;;
40286;SDS011;25998;46.604;13.610;2024-03-02T06:44:31;7.30;;;5.30;;
40286;SDS011;25998;46.604;13.610;2024-03-02T06:47:42;7.20;;;3.80;;
40286;SDS011;25998;46.604;13.610;2024-03-02T06:50:53;7.97;;;4.60;;
40286;SDS011;25998;46.604;13.610;2024-03-02T06:54:04;6.43;;;5.10;;
40286;SDS011;25998;46.604;13.610;2024-03-02T06:57:15;8.30;;;4.95;;
40286;SDS011;25998;46.604;13.610;2024-03-02T07:00:27;9.60;;;6.28;;
40286;SDS011;25998;46.604;13.610;2024-03-02T07:03:38;9.60;;;6.28;;
40286;SDS011;25998;46.604;13.610;2024-03-02T07:06:49;9.93;;;6.35;;
40286;SDS011;25998;46.604;13.610;2024-03-02T07:10:01;10.07;;;9.07;;
40286;SDS011;25998;46.604;13.610;2024-03-02T07:13:12;12.48;;;7.80;;
40286;SDS011;25998;46.604;13.610;2024-03-02T07:16:23;11.02;;;8.65;;
40286;SDS011;25998;46.604;13.610;2024-03-02T07:19:44;13.32;;;9.35;;
40286;SDS011;25998;46.604;13.610;2024-03-02T07:22:55;11.60;;;6.60;;
40286;SDS011;25998;46.604;13.610;2024-03-02T07:26:06;9.20;;;6.72;;
40286;SDS011;25998;46.604;13.610;2024-03-02T07:29:17;300.02;;;24.80;;
40286;SDS011;25998;46.604;13.610;2024-03-02T07:32:28;390.20;;;27.88;;
40286;SDS011;25998;46.604;13.610;2024-03-02T07:35:39;130.63;;;13.73;;
40286;SDS011;25998;46.604;13.610;2024-03-02T07:38:50;160.13;;;15.50;;
40286;SDS011;25998;46.604;13.610;2024-03-02T07:42:01;184.20;;;14.90;;
40286;SDS011;25998;46.604;13.610;2024-03-02T07:45:12;119.82;;;12.77;;
40286;SDS011;25998;46.604;13.610;2024-03-02T07:48:22;122.47;;;11.13;;
40286;SDS011;25998;46.604;13.610;2024-03-02T07:51:33;19.15;;;7.97;;
40286;SDS011;25998;46.604;13.610;2024-03-02T07:54:46;17.42;;;7.68;;
40286;SDS011;25998;46.604;13.610;2024-03-02T07:57:57;11.27;;;6.65;;
40286;SDS011;25998;46.604;13.610;2024-03-02T08:01:08;24.38;;;7.93;;
40286;SDS011;25998;46.604;13.610;2024-03-02T08:04:19;13.30;;;9.18;;
40286;SDS011;25998;46.604;13.610;2024-03-02T08:07:30;10.35;;;7.20;;
40286;SDS011;25998;46.604;13.610;2024-03-02T08:10:41;329.30;;;26.38;;
40286;SDS011;25998;46.604;13.610;2024-03-02T08:13:51;416.02;;;31.58;;
40286;SDS011;25998;46.604;13.610;2024-03-02T08:17:04;302.20;;;24.30;;
40286;SDS011;25998;46.604;13.610;2024-03-02T08:20:19;63.97;;;10.65;;
40286;SDS011;25998;46.604;13.610;2024-03-02T08:23:30;14.73;;;7.80;;
40286;SDS011;25998;46.604;13.610;2024-03-02T08:26:42;16.02;;;8.50;;
40286;SDS011;25998;46.604;13.610;2024-03-02T08:29:53;11.25;;;7.45;;
40286;SDS011;25998;46.604;13.610;2024-03-02T08:33:04;10.65;;;7.82;;
40286;SDS011;25998;46.604;13.610;2024-03-02T08:36:16;16.63;;;9.18;;
40286;SDS011;25998;46.604;13.610;2024-03-02T08:39:27;9.60;;;7.55;;
40286;SDS011;25998;46.604;13.610;2024-03-02T08:42:38;9.82;;;6.82;;
40286;SDS011;25998;46.604;13.610;2024-03-02T08:45:49;10.30;;;6.25;;
40286;SDS011;25998;46.604;13.610;2024-03-02T08:49:01;8.60;;;6.13;;
40286;SDS011;25998;46.604;13.610;2024-03-02T08:52:12;8.25;;;6.35;;
40286;SDS011;25998;46.604;13.610;2024-03-02T08:55:23;9.05;;;6.60;;
40286;SDS011;25998;46.604;13.610;2024-03-02T08:58:34;9.05;;;5.78;;
40286;SDS011;25998;46.604;13.610;2024-03-02T09:01:45;6.13;;;5.05;;
40286;SDS011;25998;46.604;13.610;2024-03-02T09:04:56;6.65;;;5.35;;
40286;SDS011;25998;46.604;13.610;2024-03-02T09:08:07;7.10;;;4.85;;
40286;SDS011;25998;46.604;13.610;2024-03-02T09:11:18;6.07;;;4.50;;
40286;SDS011;25998;46.604;13.610;2024-03-02T09:14:29;5.70;;;4.32;;
40286;SDS011;25998;46.604;13.610;2024-03-02T09:17:40;4.97;;;3.95;;
40286;SDS011;25998;46.604;13.610;2024-03-02T09:20:51;4.43;;;3.67;;
40286;SDS011;25998;46.604;13.610;2024-03-02T09:24:02;4.32;;;3.42;;
40286;SDS011;25998;46.604;13.610;2024-03-02T09:27:13;5.60;;;3.70;;
40286;SDS011;25998;46.604;13.610;2024-03-02T09:30:24;5.07;;;3.95;;
40286;SDS011;25998;46.604;13.610;2024-03-02T09:33:35;8.35;;;3.70;;
40286;SDS011;25998;46.604;13.610;2024-03-02T09:36:46;6.35;;;3.78;;
40286;SDS011;25998;46.604;13.610;2024-03-02T09:39:56;5.13;;;3.65;;
40286;SDS011;25998;46.604;13.610;2024-03-02T09:43:07;4.03;;;3.15;;
40286;SDS011;25998;46.604;13.610;2024-03-02T09:46:19;5.53;;;3.40;;
40286;SDS011;25998;46.604;13.610;2024-03-02T09:49:30;4.45;;;2.63;;
40286;SDS011;25998;46.604;13.610;2024-03-02T09:52:43;4.75;;;2.85;;
40286;SDS011;25998;46.604;13.610;2024-03-02T09:56:01;6.50;;;3.10;;
40286;SDS011;25998;46.604;13.610;2024-03-02T09:59:12;3.67;;;2.60;;
40286;SDS011;25998;46.604;13.610;2024-03-02T10:02:26;3.85;;;2.55;;
40286;SDS011;25998;46.604;13.610;2024-03-02T10:05:37;4.50;;;2.42;;
40286;SDS011;25998;46.604;13.610;2024-03-02T10:08:48;5.40;;;2.50;;
40286;SDS011;25998;46.604;13.610;2024-03-02T10:12:06;7.50;;;2.63;;
40286;SDS011;25998;46.604;13.610;2024-03-02T10:15:24;3.75;;;2.05;;
40286;SDS011;25998;46.604;13.610;2024-03-02T10:18:35;4.10;;;2.28;;
40286;SDS011;25998;46.604;13.610;2024-03-02T10:21:47;6.28;;;2.00;;
40286;SDS011;25998;46.604;13.610;2024-03-02T10:24:59;3.85;;;2.10;;
40286;SDS011;25998;46.604;13.610;2024-03-02T10:28:10;3.83;;;2.10;;
40286;SDS011;25998;46.604;13.610;2024-03-02T10:31:21;4.20;;;2.00;;
40286;SDS011;25998;46.604;13.610;2024-03-02T10:34:37;8.18;;;2.50;;
40286;SDS011;25998;46.604;13.610;2024-03-02T10:37:52;3.75;;;2.10;;
40286;SDS011;25998;46.604;13.610;2024-03-02T10:41:03;5.47;;;2.10;;
40286;SDS011;25998;46.604;13.610;2024-03-02T10:44:14;3.20;;;1.90;;
40286;SDS011;25998;46.604;13.610;2024-03-02T10:47:27;3.70;;;1.90;;
40286;SDS011;25998;46.604;13.610;2024-03-02T10:50:40;4.25;;;1.90;;
40286;SDS011;25998;46.604;13.610;2024-03-02T10:53:51;4.32;;;2.08;;
40286;SDS011;25998;46.604;13.610;2024-03-02T10:57:02;9.52;;;2.45;;
40286;SDS011;25998;46.604;13.610;2024-03-02T11:00:15;4.00;;;2.15;;
40286;SDS011;25998;46.604;13.610;2024-03-02T11:03:26;4.45;;;2.40;;
40286;SDS011;25998;46.604;13.610;2024-03-02T11:06:37;3.42;;;2.00;;
40286;SDS011;25998;46.604;13.610;2024-03-02T11:09:56;4.40;;;1.88;;
40286;SDS011;25998;46.604;13.610;2024-03-02T11:13:11;3.92;;;1.95;;
40286;SDS011;25998;46.604;13.610;2024-03-02T11:16:33;3.83;;;2.08;;
40286;SDS011;25998;46.604;13.610;2024-03-02T11:19:45;3.08;;;1.65;;
40286;SDS011;25998;46.604;13.610;2024-03-02T11:22:57;6.07;;;2.30;;
40286;SDS011;25998;46.604;13.610;2024-03-02T11:26:20;27.08;;;5.18;;
40286;SDS011;25998;46.604;13.610;2024-03-02T11:29:42;4.32;;;1.63;;
40286;SDS011;25998;46.604;13.610;2024-03-02T11:36:07;4.45;;;1.85;;
40286;SDS011;25998;46.604;13.610;2024-03-02T11:39:19;3.95;;;1.63;;
40286;SDS011;25998;46.604;13.610;2024-03-02T11:42:30;4.10;;;1.60;;
40286;SDS011;25998;46.604;13.610;2024-03-02T11:45:41;7.03;;;2.40;;
40286;SDS011;25998;46.604;13.610;2024-03-02T11:48:54;5.82;;;2.00;;
40286;SDS011;25998;46.604;13.610;2024-03-02T11:52:05;4.68;;;1.75;;
40286;SDS011;25998;46.604;13.610;2024-03-02T11:55:18;4.13;;;1.80;;
40286;SDS011;25998;46.604;13.610;2024-03-02T11:58:29;5.55;;;1.80;;
40286;SDS011;25998;46.604;13.610;2024-03-02T12:01:41;4.18;;;1.70;;
40286;SDS011;25998;46.604;13.610;2024-03-02T12:04:54;2.67;;;1.40;;
40286;SDS011;25998;46.604;13.610;2024-03-02T12:08:05;4.03;;;1.83;;
40286;SDS011;25998;46.604;13.610;2024-03-02T12:11:17;3.42;;;1.58;;
40286;SDS011;25998;46.604;13.610;2024-03-02T12:14:28;6.30;;;1.85;;
40286;SDS011;25998;46.604;13.610;2024-03-02T12:17:39;5.35;;;1.48;;
40286;SDS011;25998;46.604;13.610;2024-03-02T12:20:50;4.35;;;1.40;;
40286;SDS011;25998;46.604;13.610;2024-03-02T12:24:07;4.72;;;1.92;;
40286;SDS011;25998;46.604;13.610;2024-03-02T12:27:18;6.95;;;1.80;;
40286;SDS011;25998;46.604;13.610;2024-03-02T12:30:31;4.22;;;1.58;;
40286;SDS011;25998;46.604;13.610;2024-03-02T12:33:46;3.03;;;1.70;;
40286;SDS011;25998;46.604;13.610;2024-03-02T12:36:57;3.95;;;1.60;;
40286;SDS011;25998;46.604;13.610;2024-03-02T12:40:09;4.70;;;1.80;;
40286;SDS011;25998;46.604;13.610;2024-03-02T12:43:24;4.43;;;1.70;;
40286;SDS011;25998;46.604;13.610;2024-03-02T12:46:40;3.72;;;1.80;;
40286;SDS011;25998;46.604;13.610;2024-03-02T12:49:51;3.70;;;1.73;;
40286;SDS011;25998;46.604;13.610;2024-03-02T12:53:02;3.80;;;1.80;;
40286;SDS011;25998;46.604;13.610;2024-03-02T12:56:14;4.20;;;1.63;;
40286;SDS011;25998;46.604;13.610;2024-03-02T12:59:25;3.90;;;1.77;;
40286;SDS011;25998;46.604;13.610;2024-03-02T13:02:41;4.05;;;1.88;;
40286;SDS011;25998;46.604;13.610;2024-03-02T13:05:53;3.88;;;2.00;;
40286;SDS011;25998;46.604;13.610;2024-03-02T13:09:04;3.47;;;1.80;;
40286;SDS011;25998;46.604;13.610;2024-03-02T13:12:19;3.03;;;1.50;;
40286;SDS011;25998;46.604;13.610;2024-03-02T13:15:31;3.70;;;1.75;;
40286;SDS011;25998;46.604;13.610;2024-03-02T13:18:44;3.58;;;1.70;;
40286;SDS011;25998;46.604;13.610;2024-03-02T13:21:55;4.57;;;2.10;;
40286;SDS011;25998;46.604;13.610;2024-03-02T13:25:07;5.40;;;1.90;;
40286;SDS011;25998;46.604;13.610;2024-03-02T13:28:20;7.82;;;2.45;;
40286;SDS011;25998;46.604;13.610;2024-03-02T13:31:31;5.43;;;1.80;;
40286;SDS011;25998;46.604;13.610;2024-03-02T13:34:42;4.60;;;1.60;;
40286;SDS011;25998;46.604;13.610;2024-03-02T13:37:53;5.32;;;1.90;;
40286;SDS011;25998;46.604;13.610;2024-03-02T13:41:04;3.53;;;1.77;;
40286;SDS011;25998;46.604;13.610;2024-03-02T13:44:15;5.45;;;1.50;;
40286;SDS011;25998;46.604;13.610;2024-03-02T13:47:26;6.07;;;1.73;;
40286;SDS011;25998;46.604;13.610;2024-03-02T13:50:37;4.75;;;1.85;;
40286;SDS011;25998;46.604;13.610;2024-03-02T13:53:48;4.72;;;1.92;;
40286;SDS011;25998;46.604;13.610;2024-03-02T13:56:59;4.55;;;2.42;;
40286;SDS011;25998;46.604;13.610;2024-03-02T14:00:10;2.58;;;1.55;;
40286;SDS011;25998;46.604;13.610;2024-03-02T14:03:22;3.00;;;1.60;;
40286;SDS011;25998;46.604;13.610;2024-03-02T14:06:33;4.68;;;1.90;;
40286;SDS011;25998;46.604;13.610;2024-03-02T14:09:44;3.50;;;1.60;;
40286;SDS011;25998;46.604;13.610;2024-03-02T14:12:56;5.22;;;1.40;;
40286;SDS011;25998;46.604;13.610;2024-03-02T14:16:07;8.35;;;2.15;;
40286;SDS011;25998;46.604;13.610;2024-03-02T14:19:19;5.40;;;1.50;;
40286;SDS011;25998;46.604;13.610;2024-03-02T14:22:31;6.40;;;1.90;;
40286;SDS011;25998;46.604;13.610;2024-03-02T14:25:43;4.60;;;1.95;;
40286;SDS011;25998;46.604;13.610;2024-03-02T14:28:55;4.60;;;1.50;;
40286;SDS011;25998;46.604;13.610;2024-03-02T14:32:06;10.60;;;2.17;;
40286;SDS011;25998;46.604;13.610;2024-03-02T14:35:17;6.80;;;1.90;;
40286;SDS011;25998;46.604;13.610;2024-03-02T14:38:28;4.00;;;1.67;;
40286;SDS011;25998;46.604;13.610;2024-03-02T14:41:39;3.38;;;1.52;;
40286;SDS011;25998;46.604;13.610;2024-03-02T14:44:50;4.53;;;1.80;;
40286;SDS011;25998;46.604;13.610;2024-03-02T14:48:01;5.70;;;1.60;;
40286;SDS011;25998;46.604;13.610;2024-03-02T14:51:12;4.45;;;1.77;;
40286;SDS011;25998;46.604;13.610;2024-03-02T14:54:24;5.13;;;1.92;;
40286;SDS011;25998;46.604;13.610;2024-03-02T14:57:35;5.57;;;2.22;;
40286;SDS011;25998;46.604;13.610;2024-03-02T15:00:46;4.38;;;1.75;;
40286;SDS011;25998;46.604;13.610;2024-03-02T15:03:57;6.72;;;1.90;;
40286;SDS011;25998;46.604;13.610;2024-03-02T15:07:08;3.75;;;1.73;;
40286;SDS011;25998;46.604;13.610;2024-03-02T15:10:19;5.15;;;1.58;;
40286;SDS011;25998;46.604;13.610;2024-03-02T15:13:30;4.28;;;1.70;;
40286;SDS011;25998;46.604;13.610;2024-03-02T15:16:41;7.55;;;2.15;;
40286;SDS011;25998;46.604;13.610;2024-03-02T15:19:52;9.27;;;2.40;;
40286;SDS011;25998;46.604;13.610;2024-03-02T15:23:03;4.07;;;1.95;;
40286;SDS011;25998;46.604;13.610;2024-03-02T15:26:14;5.13;;;2.25;;
40286;SDS011;25998;46.604;13.610;2024-03-02T15:29:25;4.35;;;1.52;;
40286;SDS011;25998;46.604;13.610;2024-03-02T15:32:39;5.70;;;2.13;;
40286;SDS011;25998;46.604;13.610;2024-03-02T15:35:50;3.28;;;1.90;;
40286;SDS011;25998;46.604;13.610;2024-03-02T15:39:01;4.22;;;1.70;;
40286;SDS011;25998;46.604;13.610;2024-03-02T15:42:13;5.47;;;1.80;;
40286;SDS011;25998;46.604;13.610;2024-03-02T15:45:24;4.53;;;1.55;;
40286;SDS011;25998;46.604;13.610;2024-03-02T15:48:41;3.53;;;1.52;;
40286;SDS011;25998;46.604;13.610;2024-03-02T15:51:52;4.28;;;1.98;;
40286;SDS011;25998;46.604;13.610;2024-03-02T15:55:03;4.95;;;1.80;;
40286;SDS011;25998;46.604;13.610;2024-03-02T15:58:15;6.80;;;3.33;;
40286;SDS011;25998;46.604;13.610;2024-03-02T16:01:28;7.93;;;2.70;;
40286;SDS011;25998;46.604;13.610;2024-03-02T16:04:39;3.03;;;1.30;;
40286;SDS011;25998;46.604;13.610;2024-03-02T16:07:50;5.82;;;1.88;;
40286;SDS011;25998;46.604;13.610;2024-03-02T16:11:02;4.70;;;1.77;;
40286;SDS011;25998;46.604;13.610;2024-03-02T16:14:14;2.90;;;1.60;;
40286;SDS011;25998;46.604;13.610;2024-03-02T16:17:25;4.55;;;1.90;;
40286;SDS011;25998;46.604;13.610;2024-03-02T16:20:36;3.67;;;2.33;;
40286;SDS011;25998;46.604;13.610;2024-03-02T16:23:47;3.45;;;1.80;;
40286;SDS011;25998;46.604;13.610;2024-03-02T16:26:57;4.53;;;2.10;;
40286;SDS011;25998;46.604;13.610;2024-03-02T16:30:08;5.22;;;2.03;;
40286;SDS011;25998;46.604;13.610;2024-03-02T16:33:20;6.13;;;2.30;;
40286;SDS011;25998;46.604;13.610;2024-03-02T16:36:31;4.03;;;2.25;;
40286;SDS011;25998;46.604;13.610;2024-03-02T16:39:44;5.47;;;2.20;;
40286;SDS011;25998;46.604;13.610;2024-03-02T16:42:55;4.18;;;2.20;;
40286;SDS011;25998;46.604;13.610;2024-03-02T16:46:06;6.00;;;2.50;;
40286;SDS011;25998;46.604;13.610;2024-03-02T16:49:19;4.00;;;2.30;;
40286;SDS011;25998;46.604;13.610;2024-03-02T16:52:30;5.68;;;2.47;;
40286;SDS011;25998;46.604;13.610;2024-03-02T16:55:41;6.93;;;3.03;;
40286;SDS011;25998;46.604;13.610;2024-03-02T16:58:52;217.30;;;121.05;;
40286;SDS011;25998;46.604;13.610;2024-03-02T17:02:03;10.02;;;6.22;;
40286;SDS011;25998;46.604;13.610;2024-03-02T17:05:14;7.63;;;2.88;;
40286;SDS011;25998;46.604;13.610;2024-03-02T17:08:25;4.68;;;3.38;;
40286;SDS011;25998;46.604;13.610;2024-03-02T17:11:36;4.97;;;3.03;;
40286;SDS011;25998;46.604;13.610;2024-03-02T17:14:47;4.85;;;2.78;;
40286;SDS011;25998;46.604;13.610;2024-03-02T17:17:58;6.13;;;3.10;;
40286;SDS011;25998;46.604;13.610;2024-03-02T17:21:09;4.65;;;2.70;;
40286;SDS011;25998;46.604;13.610;2024-03-02T17:24:20;6.20;;;3.63;;
40286;SDS011;25998;46.604;13.610;2024-03-02T17:27:31;5.25;;;3.22;;
40286;SDS011;25998;46.604;13.610;2024-03-02T17:30:42;4.82;;;3.20;;
40286;SDS011;25998;46.604;13.610;2024-03-02T17:33:53;8.00;;;2.92;;
40286;SDS011;25998;46.604;13.610;2024-03-02T17:37:03;5.18;;;3.50;;
40286;SDS011;25998;46.604;13.610;2024-03-02T17:40:14;4.53;;;2.63;;
40286;SDS011;25998;46.604;13.610;2024-03-02T17:43:25;3.88;;;2.53;;
40286;SDS011;25998;46.604;13.610;2024-03-02T17:46:36;7.93;;;3.67;;
40286;SDS011;25998;46.604;13.610;2024-03-02T17:49:47;5.32;;;2.92;;
40286;SDS011;25998;46.604;13.610;2024-03-02T17:52:58;5.45;;;2.80;;
40286;SDS011;25998;46.604;13.610;2024-03-02T17:56:09;8.10;;;2.60;;
40286;SDS011;25998;46.604;13.610;2024-03-02T17:59:20;7.93;;;2.70;;
40286;SDS011;25998;46.604;13.610;2024-03-02T18:02:31;5.70;;;2.80;;
40286;SDS011;25998;46.604;13.610;2024-03-02T18:05:45;5.68;;;2.20;;
40286;SDS011;25998;46.604;13.610;2024-03-02T18:08:56;6.68;;;2.40;;
40286;SDS011;25998;46.604;13.610;2024-03-02T18:12:07;4.05;;;2.08;;
40286;SDS011;25998;46.604;13.610;2024-03-02T18:15:18;4.80;;;2.25;;
40286;SDS011;25998;46.604;13.610;2024-03-02T18:18:29;3.03;;;2.08;;
40286;SDS011;25998;46.604;13.610;2024-03-02T18:21:40;6.40;;;2.30;;
40286;SDS011;25998;46.604;13.610;2024-03-02T18:24:51;4.57;;;2.30;;
40286;SDS011;25998;46.604;13.610;2024-03-02T18:28:01;3.95;;;2.17;;
40286;SDS011;25998;46.604;13.610;2024-03-02T18:31:12;8.18;;;2.22;;
40286;SDS011;25998;46.604;13.610;2024-03-02T18:34:23;7.72;;;2.47;;
40286;SDS011;25998;46.604;13.610;2024-03-02T18:37:37;6.70;;;2.65;;
40286;SDS011;25998;46.604;13.610;2024-03-02T18:40:48;4.40;;;2.28;;
40286;SDS011;25998;46.604;13.610;2024-03-02T18:43:59;7.88;;;2.47;;
40286;SDS011;25998;46.604;13.610;2024-03-02T18:47:10;6.45;;;2.25;;
40286;SDS011;25998;46.604;13.610;2024-03-02T18:50:21;3.78;;;1.98;;
40286;SDS011;25998;46.604;13.610;2024-03-02T18:53:32;4.32;;;2.30;;
40286;SDS011;25998;46.604;13.610;2024-03-02T18:56:43;3.50;;;1.77;;
40286;SDS011;25998;46.604;13.610;2024-03-02T18:59:54;3.83;;;1.80;;
40286;SDS011;25998;46.604;13.610;2024-03-02T19:03:05;4.28;;;1.88;;
40286;SDS011;25998;46.604;13.610;2024-03-02T19:06:16;3.92;;;1.80;;